Time;durP1;ratioP1;P1;durP2;ratioP2;P2;SDS_P1;SDS_P2;PMS_P1;PMS_P2;Temp;Humidity;BMP_temperature;BMP_pressure;BME280_temperature;BME280_humidity;BME280_pressure;Samples;Min_cycle;Max_cycle;Signal;HPM_P1;HPM_P2
2022/08/22 00:00:50;;;;;;;2.50;2.23;;;;;;;;;;4947786;28;20197;-45
2022/08/22 00:03:25;;;;;;;4.20;2.40;;;;;;;;;;4947150;28;20625;-45
2022/08/22 00:05:51;;;;;;;3.57;2.77;;;;;;;;;;4951291;28;20189;-45
2022/08/22 00:08:26;;;;;;;4.73;2.10;;;;;;;;;;4947259;28;20276;-45
2022/08/22 00:11:11;;;;;;;3.17;2.37;;;;;;;;;;4944305;28;20475;-45
2022/08/22 00:13:49;;;;;;;3.20;2.80;;;;;;;;;;4946672;28;20667;-45
2022/08/22 00:16:15;;;;;;;3.13;2.50;;;;;;;;;;4948528;28;21028;-45
2022/08/22 00:18:52;;;;;;;3.57;2.60;;;;;;;;;;4948665;28;20801;-45
2022/08/22 00:21:32;;;;;;;4.60;2.47;;;;;;;;;;4946243;28;20181;-45
2022/08/22 00:23:58;;;;;;;2.60;2.40;;;;;;;;;;4949965;28;20233;-45
2022/08/22 00:26:34;;;;;;;3.47;2.27;;;;;;;;;;4948466;28;20166;-45
2022/08/22 00:29:02;;;;;;;4.60;2.80;;;;;;;;;;4952235;28;20673;-45
2022/08/22 00:31:34;;;;;;;4.03;2.70;;;;;;;;;;4949511;28;20229;-45
2022/08/22 00:34:04;;;;;;;4.93;2.70;;;;;;;;;;4949032;28;20289;-45
2022/08/22 00:36:33;;;;;;;6.33;2.90;;;;;;;;;;4951092;28;20289;-45
2022/08/22 00:39:09;;;;;;;3.20;2.53;;;;;;;;;;4963543;28;20535;-45
2022/08/22 00:41:54;;;;;;;5.37;2.83;;;;;;;;;;4947989;28;20182;-45
2022/08/22 00:44:35;;;;;;;4.00;2.63;;;;;;;;;;4939987;28;20178;-45
2022/08/22 00:47:11;;;;;;;4.93;2.60;;;;;;;;;;4949847;28;20578;-45
2022/08/22 00:49:56;;;;;;;3.47;2.80;;;;;;;;;;4948711;28;20189;-45
2022/08/22 00:52:25;;;;;;;5.33;3.00;;;;;;;;;;4947722;28;20182;-45
2022/08/22 00:54:54;;;;;;;5.20;3.23;;;;;;;;;;4946097;28;20237;-45
2022/08/22 00:57:20;;;;;;;5.07;3.10;;;;;;;;;;4948787;28;20213;-45
2022/08/22 01:00:12;;;;;;;3.60;2.70;;;;;;;;;;4949072;28;20209;-45
2022/08/22 01:02:39;;;;;;;4.70;3.20;;;;;;;;;;4951726;28;20829;-45
2022/08/22 01:05:21;;;;;;;3.13;2.57;;;;;;;;;;4951924;28;20194;-45
2022/08/22 01:08:02;;;;;;;4.27;2.70;;;;;;;;;;4954305;28;20742;-45
2022/08/22 01:10:28;;;;;;;4.60;2.60;;;;;;;;;;4952756;28;20221;-45
2022/08/22 01:12:57;;;;;;;4.40;2.33;;;;;;;;;;4966430;28;20523;-45
2022/08/22 01:15:26;;;;;;;4.70;2.70;;;;;;;;;;4954747;28;20531;-45
2022/08/22 01:18:01;;;;;;;3.40;2.40;;;;;;;;;;4950698;28;20293;-45
2022/08/22 01:20:37;;;;;;;3.50;2.30;;;;;;;;;;4952801;28;20181;-45
2022/08/22 01:23:29;;;;;;;2.63;2.27;;;;;;;;;;4953364;28;20227;-44
2022/08/22 01:26:14;;;;;;;3.67;2.20;;;;;;;;;;4948598;28;20552;-45
2022/08/22 01:29:00;;;;;;;4.17;2.40;;;;;;;;;;4944237;28;20285;-45
2022/08/22 01:31:45;;;;;;;2.87;2.43;;;;;;;;;;4932336;28;20197;-45
2022/08/22 01:34:11;;;;;;;3.30;2.50;;;;;;;;;;4950909;28;20174;-45
2022/08/22 01:36:56;;;;;;;3.33;2.73;;;;;;;;;;4945903;28;20190;-45
2022/08/22 01:39:25;;;;;;;6.27;2.70;;;;;;;;;;4950627;28;20186;-45
2022/08/22 01:42:03;;;;;;;4.50;2.47;;;;;;;;;;4951997;28;20567;-45
2022/08/22 01:44:45;;;;;;;3.03;2.17;;;;;;;;;;4951109;28;20174;-45
2022/08/22 01:47:15;;;;;;;4.77;2.30;;;;;;;;;;4947885;28;20534;-44
2022/08/22 01:49:48;;;;;;;5.50;2.30;;;;;;;;;;4951817;28;20185;-45
2022/08/22 01:52:17;;;;;;;3.20;2.30;;;;;;;;;;4948710;28;21005;-45
2022/08/22 01:54:59;;;;;;;4.97;2.23;;;;;;;;;;4950424;28;20726;-45
2022/08/22 01:57:26;;;;;;;2.70;2.27;;;;;;;;;;4948444;28;20515;-45
2022/08/22 01:59:54;;;;;;;3.63;2.47;;;;;;;;;;4950774;28;20623;-45
2022/08/22 02:02:23;;;;;;;4.53;2.70;;;;;;;;;;4945299;28;20182;-45
2022/08/22 02:05:08;;;;;;;4.97;2.23;;;;;;;;;;4953424;28;20221;-45
2022/08/22 02:07:47;;;;;;;3.17;2.50;;;;;;;;;;4949898;28;20202;-45
2022/08/22 02:10:22;;;;;;;4.90;2.40;;;;;;;;;;4948681;28;20461;-45
2022/08/22 02:12:55;;;;;;;3.07;2.37;;;;;;;;;;4949864;28;20712;-45
2022/08/22 02:15:24;;;;;;;3.73;2.17;;;;;;;;;;4950853;28;20730;-45
2022/08/22 02:17:50;;;;;;;2.40;2.20;;;;;;;;;;4949277;28;20638;-45
2022/08/22 02:20:45;;;;;;;4.53;2.60;;;;;;;;;;4950653;28;20178;-45
2022/08/22 02:23:35;;;;;;;2.80;2.43;;;;;;;;;;4945630;28;20848;-46
2022/08/22 02:26:01;;;;;;;3.40;2.40;;;;;;;;;;4946880;28;20174;-45
2022/08/22 02:28:46;;;;;;;2.87;2.50;;;;;;;;;;4946221;28;20206;-45
2022/08/22 02:31:14;;;;;;;4.30;2.47;;;;;;;;;;4948050;28;20170;-45
2022/08/22 02:33:47;;;;;;;3.47;2.60;;;;;;;;;;4954444;28;20317;-45
2022/08/22 02:36:14;;;;;;;2.57;2.27;;;;;;;;;;4950627;28;20185;-45
2022/08/22 02:38:49;;;;;;;2.67;2.20;;;;;;;;;;4949784;28;20189;-45
2022/08/22 02:41:28;;;;;;;3.57;2.70;;;;;;;;;;4953732;28;20174;-45
2022/08/22 02:43:58;;;;;;;5.00;2.50;;;;;;;;;;4952965;28;20174;-45
2022/08/22 02:46:29;;;;;;;2.80;2.50;;;;;;;;;;4948215;28;20463;-45
2022/08/22 02:49:01;;;;;;;4.03;2.40;;;;;;;;;;4954089;28;20699;-45
2022/08/22 02:51:27;;;;;;;2.73;2.30;;;;;;;;;;4948138;28;20178;-45
2022/08/22 02:53:53;;;;;;;3.70;2.10;;;;;;;;;;4949679;28;20513;-45
2022/08/22 02:56:23;;;;;;;2.70;2.00;;;;;;;;;;4949395;28;20616;-45
2022/08/22 02:58:49;;;;;;;3.80;2.60;;;;;;;;;;4949668;28;20481;-45
2022/08/22 03:01:28;;;;;;;2.60;2.40;;;;;;;;;;4950837;28;20176;-45
2022/08/22 03:04:20;;;;;;;4.17;2.87;;;;;;;;;;4956276;28;20716;-45
2022/08/22 03:07:05;;;;;;;4.60;2.93;;;;;;;;;;4935714;28;20313;-45
2022/08/22 03:09:54;;;;;;;3.97;3.00;;;;;;;;;;4950862;28;20178;-45
2022/08/22 03:12:41;;;;;;;4.77;2.70;;;;;;;;;;4948660;28;20265;-45
2022/08/22 03:15:12;;;;;;;3.07;2.77;;;;;;;;;;4947390;28;20756;-46
2022/08/22 03:17:46;;;;;;;4.87;2.67;;;;;;;;;;4955939;28;20816;-45
2022/08/22 03:20:14;;;;;;;4.20;3.00;;;;;;;;;;4949457;28;20178;-45
2022/08/22 03:22:42;;;;;;;5.83;2.87;;;;;;;;;;4945806;28;20468;-45
2022/08/22 03:25:17;;;;;;;3.10;2.43;;;;;;;;;;4953559;28;20272;-45
2022/08/22 03:27:49;;;;;;;4.17;3.10;;;;;;;;;;4945636;28;20925;-45
2022/08/22 03:30:38;;;;;;;3.37;3.07;;;;;;;;;;4947981;28;20714;-45
2022/08/22 03:33:13;;;;;;;3.53;2.80;;;;;;;;;;4951854;28;20221;-45
2022/08/22 03:35:45;;;;;;;3.33;2.60;;;;;;;;;;4949822;28;20189;-45
2022/08/22 03:38:27;;;;;;;2.83;2.63;;;;;;;;;;4947878;28;20186;-45
2022/08/22 03:41:02;;;;;;;4.60;3.23;;;;;;;;;;4950217;28;20170;-45
2022/08/22 03:43:38;;;;;;;6.17;3.20;;;;;;;;;;4952254;28;20176;-45
2022/08/22 03:46:23;;;;;;;4.70;3.50;;;;;;;;;;4946950;28;20201;-46
2022/08/22 03:49:21;;;;;;;4.80;3.90;;;;;;;;;;4952744;28;20639;-45
2022/08/22 03:52:00;;;;;;;4.37;3.97;;;;;;;;;;4959462;28;20181;-45
2022/08/22 03:54:35;;;;;;;5.93;4.17;;;;;;;;;;4947512;28;20273;-45
2022/08/22 03:57:06;;;;;;;5.17;3.90;;;;;;;;;;4949642;28;20678;-45
2022/08/22 03:59:33;;;;;;;4.97;3.93;;;;;;;;;;4949310;28;20209;-45
2022/08/22 04:02:18;;;;;;;6.97;4.00;;;;;;;;;;4945968;28;20174;-46
2022/08/22 04:04:44;;;;;;;4.87;3.83;;;;;;;;;;4950175;28;20831;-45
2022/08/22 04:07:14;;;;;;;4.73;3.77;;;;;;;;;;4948747;28;20741;-45
2022/08/22 04:09:40;;;;;;;13.90;5.53;;;;;;;;;;4950476;28;20706;-46
2022/08/22 04:12:15;;;;;;;12.13;5.13;;;;;;;;;;4948425;28;20595;-45
2022/08/22 04:14:42;;;;;;;9.40;4.87;;;;;;;;;;4950606;28;20188;-46
2022/08/22 04:17:27;;;;;;;12.77;5.10;;;;;;;;;;4952517;28;20732;-46
2022/08/22 04:20:05;;;;;;;15.40;6.10;;;;;;;;;;4948076;28;20182;-46
2022/08/22 04:22:50;;;;;;;11.60;5.47;;;;;;;;;;4948282;28;20178;-46
2022/08/22 04:25:22;;;;;;;15.07;5.27;;;;;;;;;;4965325;28;20685;-46
2022/08/22 04:28:08;;;;;;;6.33;4.33;;;;;;;;;;4946278;28;20972;-45
2022/08/22 04:30:37;;;;;;;7.00;4.50;;;;;;;;;;4937716;28;20646;-45
2022/08/22 04:33:09;;;;;;;4.90;4.20;;;;;;;;;;4952508;28;20587;-45
2022/08/22 04:35:41;;;;;;;5.40;4.50;;;;;;;;;;4948570;28;20178;-45
2022/08/22 04:38:14;;;;;;;6.73;5.63;;;;;;;;;;4952976;28;20193;-45
2022/08/22 04:40:41;;;;;;;9.60;5.70;;;;;;;;;;4956107;28;20537;-46
2022/08/22 04:43:21;;;;;;;8.53;6.13;;;;;;;;;;4952407;28;20185;-45
2022/08/22 04:45:47;;;;;;;7.67;6.00;;;;;;;;;;4951510;28;20182;-45
2022/08/22 04:48:20;;;;;;;8.60;6.13;;;;;;;;;;4953724;28;20600;-46
2022/08/22 04:50:53;;;;;;;7.17;6.10;;;;;;;;;;4956096;28;20558;-46
2022/08/22 04:53:35;;;;;;;9.13;6.90;;;;;;;;;;4952393;28;20174;-46
2022/08/22 04:56:06;;;;;;;6.00;5.40;;;;;;;;;;4952269;28;20174;-45
2022/08/22 04:58:35;;;;;;;7.67;6.27;;;;;;;;;;4950591;28;20186;-46
2022/08/22 05:01:15;;;;;;;7.70;6.67;;;;;;;;;;4950361;28;20249;-46
2022/08/22 05:03:45;;;;;;;9.40;7.67;;;;;;;;;;4950684;28;20209;-45
2022/08/22 05:06:12;;;;;;;7.20;6.30;;;;;;;;;;4950462;28;20255;-46
2022/08/22 05:08:40;;;;;;;8.47;7.30;;;;;;;;;;4948806;28;20208;-46
2022/08/22 05:11:07;;;;;;;8.57;7.13;;;;;;;;;;4956701;28;20245;-45
2022/08/22 05:13:38;;;;;;;14.67;9.67;;;;;;;;;;4956536;28;20903;-46
2022/08/22 05:16:05;;;;;;;9.03;8.13;;;;;;;;;;4949336;28;20576;-45
2022/08/22 05:19:04;;;;;;;10.20;8.17;;;;;;;;;;4945896;28;20178;-45
2022/08/22 05:21:32;;;;;;;11.47;9.67;;;;;;;;;;4916481;28;20489;-45
2022/08/22 05:23:58;;;;;;;8.53;7.70;;;;;;;;;;4954370;28;20540;-46
2022/08/22 05:26:25;;;;;;;9.27;8.27;;;;;;;;;;4952665;28;20722;-45
2022/08/22 05:29:02;;;;;;;12.77;9.40;;;;;;;;;;4952161;28;20675;-46
2022/08/22 05:31:32;;;;;;;11.53;10.30;;;;;;;;;;4937615;28;20181;-46
2022/08/22 05:34:03;;;;;;;11.50;9.33;;;;;;;;;;4951754;28;20240;-45
2022/08/22 05:36:35;;;;;;;10.63;8.47;;;;;;;;;;4949065;28;20197;-46
2022/08/22 05:39:22;;;;;;;8.10;7.30;;;;;;;;;;4948135;28;20186;-45
2022/08/22 05:41:49;;;;;;;11.07;8.07;;;;;;;;;;4967138;28;20185;-45
2022/08/22 05:44:36;;;;;;;8.90;7.50;;;;;;;;;;4954576;28;21234;-45
2022/08/22 05:47:17;;;;;;;9.97;8.20;;;;;;;;;;4955432;28;20653;-46
2022/08/22 05:49:46;;;;;;;9.70;7.83;;;;;;;;;;4949128;28;20758;-45
2022/08/22 05:52:31;;;;;;;8.50;6.90;;;;;;;;;;4950743;28;20525;-46
2022/08/22 05:55:03;;;;;;;10.87;7.63;;;;;;;;;;4954855;28;20633;-45
2022/08/22 05:57:32;;;;;;;9.70;8.07;;;;;;;;;;4955725;28;20218;-46
2022/08/22 06:00:09;;;;;;;12.30;6.90;;;;;;;;;;4952392;28;20354;-45
2022/08/22 06:02:47;;;;;;;8.93;7.70;;;;;;;;;;4949777;28;20603;-45
2022/08/22 06:05:16;;;;;;;9.77;7.40;;;;;;;;;;4953653;28;20186;-45
2022/08/22 06:07:47;;;;;;;11.77;7.37;;;;;;;;;;4951000;28;20206;-45
2022/08/22 06:10:17;;;;;;;11.73;7.63;;;;;;;;;;4954148;28;20170;-46
2022/08/22 06:13:03;;;;;;;9.53;6.63;;;;;;;;;;4956987;28;20516;-45
2022/08/22 06:15:29;;;;;;;8.03;6.47;;;;;;;;;;4951505;28;20190;-46
2022/08/22 06:18:04;;;;;;;9.27;7.53;;;;;;;;;;4951695;28;20178;-46
2022/08/22 06:20:38;;;;;;;8.57;6.90;;;;;;;;;;4951004;28;20189;-46
2022/08/22 06:23:05;;;;;;;7.93;6.30;;;;;;;;;;4950188;28;20294;-46
2022/08/22 06:25:32;;;;;;;8.70;6.90;;;;;;;;;;4950447;28;20260;-45
2022/08/22 06:28:01;;;;;;;8.37;6.47;;;;;;;;;;4945473;28;20556;-45
2022/08/22 06:30:28;;;;;;;10.50;6.87;;;;;;;;;;4941999;28;20175;-45
2022/08/22 06:32:57;;;;;;;9.07;6.70;;;;;;;;;;4948882;28;20182;-45
2022/08/22 06:35:26;;;;;;;8.67;6.73;;;;;;;;;;4949180;28;20390;-45
2022/08/22 06:37:54;;;;;;;10.17;7.03;;;;;;;;;;4945525;28;20312;-46
2022/08/22 06:40:20;;;;;;;8.07;6.43;;;;;;;;;;4948543;28;20477;-45
2022/08/22 06:42:50;;;;;;;8.00;6.50;;;;;;;;;;4951029;28;20178;-45
2022/08/22 06:45:16;;;;;;;8.50;6.70;;;;;;;;;;4951330;28;20174;-45
2022/08/22 06:47:47;;;;;;;8.07;6.23;;;;;;;;;;4948446;28;20253;-45
2022/08/22 06:50:32;;;;;;;6.20;5.60;;;;;;;;;;4947047;28;20188;-45
2022/08/22 06:53:10;;;;;;;6.90;5.50;;;;;;;;;;4949975;28;20182;-45
2022/08/22 06:55:38;;;;;;;9.03;5.97;;;;;;;;;;4943161;28;20178;-45
2022/08/22 06:58:05;;;;;;;9.07;6.03;;;;;;;;;;4950815;28;20293;-45
2022/08/22 07:00:35;;;;;;;7.43;5.80;;;;;;;;;;4949303;28;20968;-46
2022/08/22 07:03:01;;;;;;;8.53;5.13;;;;;;;;;;4948866;28;20703;-45
2022/08/22 07:05:33;;;;;;;8.77;5.73;;;;;;;;;;4949447;28;20187;-45
2022/08/22 07:08:04;;;;;;;8.50;6.03;;;;;;;;;;4954250;28;20194;-45
2022/08/22 07:10:30;;;;;;;6.87;5.70;;;;;;;;;;4955285;28;20269;-45
2022/08/22 07:12:57;;;;;;;9.33;6.47;;;;;;;;;;4949084;28;20174;-46
2022/08/22 07:15:36;;;;;;;7.30;6.33;;;;;;;;;;4946468;28;20904;-45
2022/08/22 07:18:04;;;;;;;8.30;6.90;;;;;;;;;;4948656;28;20182;-45
2022/08/22 07:20:34;;;;;;;8.20;6.60;;;;;;;;;;4950974;28;20237;-45
2022/08/22 07:23:02;;;;;;;15.67;8.33;;;;;;;;;;4950600;28;20208;-45
2022/08/22 07:25:29;;;;;;;10.97;9.77;;;;;;;;;;4948612;28;20264;-45
2022/08/22 07:28:14;;;;;;;11.40;8.60;;;;;;;;;;4948407;28;20205;-45
2022/08/22 07:30:46;;;;;;;10.53;8.53;;;;;;;;;;4952276;28;20822;-45
2022/08/22 07:33:32;;;;;;;9.17;8.13;;;;;;;;;;4951564;28;20686;-45
2022/08/22 07:36:00;;;;;;;11.37;7.87;;;;;;;;;;4950610;28;20939;-45
2022/08/22 07:38:52;;;;;;;11.93;8.27;;;;;;;;;;4952598;28;20202;-45
2022/08/22 07:41:22;;;;;;;8.07;7.27;;;;;;;;;;4951275;28;20535;-45
2022/08/22 07:43:53;;;;;;;10.47;7.40;;;;;;;;;;4948824;28;20186;-46
2022/08/22 07:46:27;;;;;;;9.77;6.67;;;;;;;;;;4950579;28;20189;-45
2022/08/22 07:48:55;;;;;;;7.53;6.73;;;;;;;;;;4952485;28;20503;-46
2022/08/22 07:51:42;;;;;;;7.17;6.07;;;;;;;;;;4948984;28;20285;-45
2022/08/22 07:54:10;;;;;;;9.67;6.10;;;;;;;;;;4949388;28;20261;-45
2022/08/22 07:56:51;;;;;;;9.50;5.67;;;;;;;;;;4950263;28;20182;-45
2022/08/22 07:59:18;;;;;;;12.43;6.97;;;;;;;;;;4949611;28;20169;-46
2022/08/22 08:01:45;;;;;;;7.30;5.80;;;;;;;;;;4950182;28;20174;-45
2022/08/22 08:04:14;;;;;;;7.43;5.40;;;;;;;;;;4950198;28;20830;-46
2022/08/22 08:06:40;;;;;;;6.43;4.73;;;;;;;;;;4948439;28;20189;-46
2022/08/22 08:09:12;;;;;;;4.27;3.50;;;;;;;;;;4945546;28;20174;-46
2022/08/22 08:11:40;;;;;;;6.00;4.00;;;;;;;;;;4952938;28;20174;-45
2022/08/22 08:14:07;;;;;;;4.90;4.17;;;;;;;;;;4948324;28;20595;-46
2022/08/22 08:16:40;;;;;;;6.60;3.57;;;;;;;;;;4948265;28;20277;-46
2022/08/22 08:19:07;;;;;;;5.73;3.50;;;;;;;;;;4952078;28;20181;-46
2022/08/22 08:21:37;;;;;;;6.50;3.90;;;;;;;;;;4950380;28;20714;-46
2022/08/22 08:24:05;;;;;;;3.93;3.47;;;;;;;;;;4946583;28;20181;-46
2022/08/22 08:28:32;;;;;;;5.80;3.00;;;;;;;;;;4949644;28;20185;-46
2022/08/22 08:29:29;;;;;;;4.73;3.57;;;;;;;;;;4954033;28;20186;-46
2022/08/22 08:31:56;;;;;;;5.67;3.57;;;;;;;;;;4950886;28;20726;-46
2022/08/22 08:34:23;;;;;;;4.73;2.83;;;;;;;;;;4948313;28;20647;-46
2022/08/22 08:36:55;;;;;;;2.70;2.50;;;;;;;;;;4951680;28;20185;-46
2022/08/22 08:39:42;;;;;;;4.07;2.27;;;;;;;;;;4949844;28;20936;-46
2022/08/22 08:42:14;;;;;;;2.60;2.40;;;;;;;;;;4951645;28;20178;-46
2022/08/22 08:45:00;;;;;;;3.00;1.80;;;;;;;;;;4949569;28;20704;-46
2022/08/22 08:47:28;;;;;;;3.17;1.77;;;;;;;;;;4946952;28;20479;-46
2022/08/22 08:49:59;;;;;;;2.80;2.07;;;;;;;;;;4948853;28;20167;-46
2022/08/22 08:52:25;;;;;;;4.17;1.70;;;;;;;;;;4951423;28;20994;-46
2022/08/22 08:55:09;;;;;;;2.80;1.93;;;;;;;;;;4950694;28;21072;-46
2022/08/22 08:57:57;;;;;;;2.33;1.87;;;;;;;;;;4952505;28;20188;-46
2022/08/22 09:00:26;;;;;;;4.60;1.90;;;;;;;;;;4948002;28;20666;-46
2022/08/22 09:03:02;;;;;;;2.70;1.90;;;;;;;;;;4951517;28;20249;-46
2022/08/22 09:05:46;;;;;;;2.33;2.10;;;;;;;;;;4947914;28;20342;-46
2022/08/22 09:08:18;;;;;;;3.13;1.90;;;;;;;;;;4947630;28;20213;-46
2022/08/22 09:11:03;;;;;;;4.80;1.87;;;;;;;;;;4951182;28;20506;-46
2022/08/22 09:13:32;;;;;;;6.30;2.20;;;;;;;;;;4951261;28;20730;-46
2022/08/22 09:16:11;;;;;;;4.33;2.10;;;;;;;;;;4945092;28;21077;-46
2022/08/22 09:18:40;;;;;;;4.20;1.80;;;;;;;;;;4949013;28;20265;-46
2022/08/22 09:21:19;;;;;;;7.40;2.10;;;;;;;;;;4943052;28;20483;-46
2022/08/22 09:23:51;;;;;;;5.00;1.80;;;;;;;;;;4947093;28;20638;-46
2022/08/22 09:26:28;;;;;;;3.87;2.00;;;;;;;;;;4962556;28;20701;-46
2022/08/22 09:28:57;;;;;;;2.37;1.73;;;;;;;;;;4947851;28;20194;-46
2022/08/22 09:31:31;;;;;;;3.60;1.87;;;;;;;;;;4951975;28;20586;-46
2022/08/22 09:34:12;;;;;;;3.17;1.97;;;;;;;;;;4953706;28;20395;-46
2022/08/22 09:36:53;;;;;;;4.13;1.90;;;;;;;;;;4953684;28;20186;-46
2022/08/22 09:39:25;;;;;;;1.73;1.43;;;;;;;;;;4956347;28;20699;-46
2022/08/22 09:42:10;;;;;;;3.07;1.60;;;;;;;;;;4953883;28;20182;-46
2022/08/22 09:44:40;;;;;;;5.50;1.70;;;;;;;;;;4953192;28;20706;-46
2022/08/22 09:47:20;;;;;;;3.03;1.70;;;;;;;;;;4952540;28;20185;-46
2022/08/22 09:50:15;;;;;;;1.60;1.43;;;;;;;;;;4954793;28;20447;-46
2022/08/22 09:53:10;;;;;;;1.83;1.50;;;;;;;;;;4943126;28;20740;-46
2022/08/22 09:55:47;;;;;;;3.93;1.60;;;;;;;;;;4953054;28;20159;-46
2022/08/22 09:58:32;;;;;;;2.60;1.57;;;;;;;;;;4948351;28;20741;-46
2022/08/22 10:01:09;;;;;;;2.00;1.63;;;;;;;;;;4952995;28;20170;-46
2022/08/22 10:03:44;;;;;;;2.90;1.40;;;;;;;;;;4954115;28;20508;-46
2022/08/22 10:06:17;;;;;;;2.57;1.43;;;;;;;;;;4949911;28;20693;-46
2022/08/22 10:08:46;;;;;;;2.63;1.47;;;;;;;;;;4950424;28;20408;-46
2022/08/22 10:11:32;;;;;;;4.07;1.40;;;;;;;;;;4953799;28;20181;-45
2022/08/22 10:13:58;;;;;;;3.57;1.40;;;;;;;;;;4952432;28;20339;-45
2022/08/22 10:16:27;;;;;;;3.40;1.30;;;;;;;;;;4951747;28;20626;-45
2022/08/22 10:18:59;;;;;;;2.50;1.30;;;;;;;;;;4953651;28;20280;-45
2022/08/22 10:21:31;;;;;;;2.70;1.20;;;;;;;;;;4947348;28;20182;-46
2022/08/22 10:24:01;;;;;;;2.53;1.50;;;;;;;;;;4952620;28;20175;-45
2022/08/22 10:26:38;;;;;;;1.83;1.30;;;;;;;;;;4951222;28;20209;-45
2022/08/22 10:29:08;;;;;;;1.73;1.03;;;;;;;;;;4952774;28;20817;-45
2022/08/22 10:31:34;;;;;;;2.53;1.30;;;;;;;;;;4951755;28;20592;-46
2022/08/22 10:34:08;;;;;;;2.27;1.50;;;;;;;;;;4946826;28;20166;-45
2022/08/22 10:36:52;;;;;;;2.00;1.57;;;;;;;;;;4945070;28;20183;-45
2022/08/22 10:39:22;;;;;;;2.30;1.40;;;;;;;;;;4943788;28;20531;-45
2022/08/22 10:42:08;;;;;;;3.13;1.50;;;;;;;;;;4946616;28;20182;-45
2022/08/22 10:44:48;;;;;;;2.03;1.30;;;;;;;;;;4944659;28;20368;-45
2022/08/22 10:47:21;;;;;;;3.20;1.40;;;;;;;;;;4949768;28;20237;-45
2022/08/22 10:49:52;;;;;;;2.27;1.30;;;;;;;;;;4948703;28;20306;-45
2022/08/22 10:52:24;;;;;;;2.27;1.37;;;;;;;;;;4945995;28;20403;-45
2022/08/22 10:54:56;;;;;;;1.07;0.97;;;;;;;;;;4944795;28;20552;-45
2022/08/22 10:57:35;;;;;;;3.23;1.03;;;;;;;;;;4945018;28;20488;-45
2022/08/22 11:00:21;;;;;;;2.37;1.23;;;;;;;;;;4941667;28;20208;-45
2022/08/22 11:03:05;;;;;;;3.37;1.37;;;;;;;;;;4946016;28;20365;-45
2022/08/22 11:05:35;;;;;;;3.00;1.20;;;;;;;;;;4949122;28;21305;-45
2022/08/22 11:08:03;;;;;;;1.43;1.10;;;;;;;;;;4946139;28;20256;-45
2022/08/22 11:10:38;;;;;;;2.67;1.13;;;;;;;;;;4953277;28;20357;-45
2022/08/22 11:13:12;;;;;;;2.30;1.20;;;;;;;;;;4957079;28;20268;-45
2022/08/22 11:15:51;;;;;;;2.53;1.00;;;;;;;;;;4968389;28;20986;-46
2022/08/22 11:18:20;;;;;;;1.97;1.17;;;;;;;;;;4954205;28;20166;-45
2022/08/22 11:20:46;;;;;;;1.90;0.93;;;;;;;;;;4956643;28;20189;-46
2022/08/22 11:23:31;;;;;;;1.93;1.10;;;;;;;;;;4953876;28;20170;-45
2022/08/22 11:26:00;;;;;;;1.93;0.90;;;;;;;;;;4952949;28;20174;-46
2022/08/22 11:28:26;;;;;;;1.00;0.80;;;;;;;;;;4952906;28;20205;-46
2022/08/22 11:31:04;;;;;;;2.10;0.87;;;;;;;;;;4955960;28;20261;-45
2022/08/22 11:33:47;;;;;;;4.07;0.70;;;;;;;;;;4951768;28;20200;-46
2022/08/22 11:36:17;;;;;;;0.80;0.80;;;;;;;;;;4951631;28;20265;-45
2022/08/22 11:38:43;;;;;;;3.37;0.90;;;;;;;;;;4950298;28;20182;-45
2022/08/22 11:41:29;;;;;;;0.90;0.80;;;;;;;;;;4951385;28;20189;-46
2022/08/22 11:44:00;;;;;;;2.43;0.90;;;;;;;;;;4952913;28;20251;-45
2022/08/22 11:46:26;;;;;;;0.60;0.50;;;;;;;;;;4952969;28;21117;-45
2022/08/22 11:49:12;;;;;;;0.50;0.50;;;;;;;;;;4955717;28;20189;-45
2022/08/22 11:51:38;;;;;;;0.60;0.60;;;;;;;;;;4957158;28;20178;-45
2022/08/22 11:54:07;;;;;;;1.97;0.83;;;;;;;;;;4954464;28;20174;-45
2022/08/22 11:56:54;;;;;;;1.10;1.00;;;;;;;;;;4953588;28;20201;-45
2022/08/22 11:59:29;;;;;;;1.10;0.80;;;;;;;;;;4970274;28;20182;-45
2022/08/22 12:02:00;;;;;;;3.60;0.80;;;;;;;;;;4952921;28;20170;-45
2022/08/22 12:04:31;;;;;;;0.70;0.70;;;;;;;;;;4954222;28;20188;-45
2022/08/22 12:07:09;;;;;;;2.07;0.70;;;;;;;;;;4956399;28;20804;-45
2022/08/22 12:09:50;;;;;;;0.60;0.60;;;;;;;;;;4954001;28;20958;-45
2022/08/22 12:12:19;;;;;;;0.60;0.60;;;;;;;;;;4951773;28;20221;-45
2022/08/22 12:15:04;;;;;;;0.80;0.50;;;;;;;;;;4951299;28;21012;-45
2022/08/22 12:17:36;;;;;;;2.63;0.70;;;;;;;;;;4953192;28;20178;-46
2022/08/22 12:20:05;;;;;;;2.13;0.73;;;;;;;;;;4953784;28;20252;-45
2022/08/22 12:22:31;;;;;;;1.97;1.00;;;;;;;;;;4952187;28;20232;-45
2022/08/22 12:25:13;;;;;;;3.07;0.73;;;;;;;;;;4950833;28;20480;-45
2022/08/22 12:27:58;;;;;;;0.90;0.80;;;;;;;;;;4949908;28;20224;-45
2022/08/22 12:30:30;;;;;;;3.07;1.10;;;;;;;;;;4941659;28;20608;-45
2022/08/22 12:33:15;;;;;;;2.30;1.13;;;;;;;;;;4950993;28;20248;-45
2022/08/22 12:35:51;;;;;;;0.93;0.90;;;;;;;;;;4950010;28;20185;-45
2022/08/22 12:38:43;;;;;;;1.77;1.00;;;;;;;;;;4949490;28;20280;-45
2022/08/22 12:41:12;;;;;;;1.20;0.90;;;;;;;;;;4946843;28;20190;-45
2022/08/22 12:43:39;;;;;;;1.37;0.80;;;;;;;;;;4951774;28;20189;-45
2022/08/22 12:46:17;;;;;;;0.80;0.73;;;;;;;;;;4952834;28;20679;-45
2022/08/22 12:48:58;;;;;;;2.80;0.80;;;;;;;;;;4951676;28;20328;-46
2022/08/22 12:51:30;;;;;;;1.60;0.90;;;;;;;;;;4948043;28;20178;-45
2022/08/22 12:54:22;;;;;;;1.53;0.80;;;;;;;;;;4952475;28;20710;-45
2022/08/22 12:57:00;;;;;;;2.07;0.90;;;;;;;;;;4954157;28;20949;-45
2022/08/22 12:59:38;;;;;;;3.23;0.90;;;;;;;;;;4949872;28;20177;-45
2022/08/22 13:02:18;;;;;;;1.60;0.80;;;;;;;;;;4954097;28;20230;-45
2022/08/22 13:04:50;;;;;;;2.80;0.93;;;;;;;;;;4956900;28;20205;-45
2022/08/22 13:07:25;;;;;;;1.20;0.90;;;;;;;;;;4956257;28;20194;-45
2022/08/22 13:09:56;;;;;;;1.03;0.90;;;;;;;;;;4956351;28;20178;-45
2022/08/22 13:12:24;;;;;;;1.00;0.90;;;;;;;;;;4954790;28;20186;-45
2022/08/22 13:14:56;;;;;;;2.20;0.90;;;;;;;;;;4958642;28;20563;-45
2022/08/22 13:17:23;;;;;;;0.80;0.70;;;;;;;;;;4954109;28;20712;-45
2022/08/22 13:19:54;;;;;;;0.87;0.70;;;;;;;;;;4958225;28;20226;-45
2022/08/22 13:22:25;;;;;;;1.77;0.80;;;;;;;;;;4954100;28;20502;-46
2022/08/22 13:24:56;;;;;;;1.77;1.00;;;;;;;;;;4951393;28;20287;-46
2022/08/22 13:27:25;;;;;;;1.00;0.90;;;;;;;;;;4952395;28;20200;-45
2022/08/22 13:29:56;;;;;;;1.93;0.90;;;;;;;;;;4954198;28;20180;-45
2022/08/22 13:32:30;;;;;;;0.73;0.73;;;;;;;;;;4950069;28;20602;-45
2022/08/22 13:34:57;;;;;;;0.70;0.70;;;;;;;;;;4954032;28;20625;-46
2022/08/22 13:37:28;;;;;;;2.70;1.03;;;;;;;;;;4953221;28;20716;-47
2022/08/22 13:39:58;;;;;;;1.20;0.80;;;;;;;;;;4953513;28;20766;-46
2022/08/22 13:42:25;;;;;;;1.80;0.80;;;;;;;;;;4950174;28;20610;-46
2022/08/22 13:44:53;;;;;;;2.43;0.97;;;;;;;;;;4956596;28;20187;-45
2022/08/22 13:47:21;;;;;;;1.10;0.80;;;;;;;;;;4952166;28;20622;-45
2022/08/22 13:49:50;;;;;;;0.60;0.60;;;;;;;;;;4948840;28;20179;-46
2022/08/22 13:52:27;;;;;;;1.57;0.90;;;;;;;;;;4950331;28;20521;-46
2022/08/22 13:54:55;;;;;;;0.83;0.80;;;;;;;;;;4950929;28;20238;-46
2022/08/22 13:57:27;;;;;;;1.57;0.70;;;;;;;;;;4951449;28;20641;-46
2022/08/22 14:00:00;;;;;;;1.60;0.80;;;;;;;;;;4950683;28;20608;-46
2022/08/22 14:02:35;;;;;;;1.00;0.90;;;;;;;;;;4950923;28;20181;-46
2022/08/22 14:05:15;;;;;;;3.00;0.90;;;;;;;;;;4952460;28;20173;-46
2022/08/22 14:07:52;;;;;;;1.00;0.90;;;;;;;;;;4952107;28;20182;-46
2022/08/22 14:10:21;;;;;;;1.37;0.80;;;;;;;;;;4945455;28;20498;-45
2022/08/22 14:13:06;;;;;;;1.97;0.80;;;;;;;;;;4946911;28;20201;-45
2022/08/22 14:15:33;;;;;;;0.90;0.80;;;;;;;;;;4951162;28;20178;-45
2022/08/22 14:18:02;;;;;;;1.00;0.90;;;;;;;;;;4945222;28;20963;-45
2022/08/22 14:20:29;;;;;;;0.97;0.90;;;;;;;;;;4943454;28;20170;-46
2022/08/22 14:22:58;;;;;;;0.70;0.70;;;;;;;;;;4948052;28;20180;-45
2022/08/22 14:25:26;;;;;;;3.30;0.80;;;;;;;;;;4947647;28;20652;-46
2022/08/22 14:27:59;;;;;;;1.17;0.70;;;;;;;;;;4941509;28;20305;-46
2022/08/22 14:30:35;;;;;;;0.70;0.63;;;;;;;;;;4937145;28;20318;-46
2022/08/22 14:33:08;;;;;;;1.83;0.90;;;;;;;;;;4942229;28;20201;-45
2022/08/22 14:35:36;;;;;;;1.10;0.90;;;;;;;;;;4950258;28;20776;-45
2022/08/22 14:38:23;;;;;;;1.63;0.73;;;;;;;;;;4947446;28;20932;-46
2022/08/22 14:40:54;;;;;;;0.83;0.83;;;;;;;;;;4942605;28;20830;-45
2022/08/22 14:43:29;;;;;;;0.97;0.87;;;;;;;;;;4951173;28;20194;-45
2022/08/22 14:45:58;;;;;;;1.23;0.80;;;;;;;;;;4950846;28;20704;-45
2022/08/22 14:48:26;;;;;;;1.37;1.00;;;;;;;;;;4942829;28;20512;-45
2022/08/22 14:50:55;;;;;;;1.70;1.00;;;;;;;;;;4950857;28;20572;-46
2022/08/22 14:53:21;;;;;;;1.83;0.80;;;;;;;;;;4949851;28;20194;-45
2022/08/22 14:56:03;;;;;;;0.80;0.80;;;;;;;;;;4947051;28;20304;-45
2022/08/22 14:58:31;;;;;;;2.07;0.90;;;;;;;;;;4944606;28;20182;-45
2022/08/22 15:01:06;;;;;;;0.77;0.73;;;;;;;;;;4947354;28;20186;-45
2022/08/22 15:03:33;;;;;;;2.13;0.80;;;;;;;;;;4952966;28;20288;-45
2022/08/22 15:06:07;;;;;;;1.50;0.60;;;;;;;;;;4949081;28;20188;-45
2022/08/22 15:08:35;;;;;;;1.17;0.90;;;;;;;;;;4947516;28;20317;-46
2022/08/22 15:11:20;;;;;;;1.10;0.80;;;;;;;;;;4952467;28;21051;-45
2022/08/22 15:13:52;;;;;;;1.40;0.80;;;;;;;;;;4955781;28;20219;-45
2022/08/22 15:16:24;;;;;;;1.00;0.90;;;;;;;;;;4949277;28;20397;-45
2022/08/22 15:18:50;;;;;;;0.73;0.73;;;;;;;;;;4950782;28;20170;-45
2022/08/22 15:21:21;;;;;;;1.23;0.80;;;;;;;;;;4951739;28;20646;-45
2022/08/22 15:23:47;;;;;;;0.77;0.77;;;;;;;;;;4951435;28;20193;-45